createdAt,value
2019-03-17T00:03:37.786Z,40.56
2019-03-17T00:08:46.933Z,46.14
2019-03-17T00:13:56.016Z,42.34
2019-03-17T00:19:05.300Z,44.53
2019-03-17T00:24:16.431Z,41.50
2019-03-17T00:29:15.618Z,41.81
2019-03-17T00:34:24.731Z,39.14
2019-03-17T00:39:33.950Z,44.21
2019-03-17T00:44:43.043Z,41.77
2019-03-17T00:49:52.230Z,40.37
2019-03-17T00:55:01.559Z,43.72
2019-03-17T01:00:12.973Z,44.03
2019-03-17T01:05:12.022Z,39.22
2019-03-17T01:10:21.279Z,37.10
2019-03-17T01:15:30.279Z,44.09
2019-03-17T01:20:39.420Z,38.11
2019-03-17T01:25:48.510Z,37.93
2019-03-17T01:30:57.709Z,37.82
2019-03-17T01:36:06.803Z,36.03
2019-03-17T01:41:15.983Z,38.28
2019-03-17T01:46:25.066Z,35.63
2019-03-17T01:51:34.256Z,36.13
2019-03-17T01:56:43.350Z,37.93
2019-03-17T02:01:52.490Z,40.47
2019-03-17T02:07:01.565Z,39.28
2019-03-17T02:12:10.749Z,38.95
2019-03-17T02:17:19.877Z,29.69
2019-03-17T02:22:29.059Z,38.38
2019-03-17T02:27:38.139Z,32.50
2019-03-17T02:32:47.363Z,36.86
2019-03-17T02:37:56.524Z,39.95
2019-03-17T02:43:05.636Z,33.54
2019-03-17T02:48:14.715Z,31.46
2019-03-17T02:53:23.933Z,33.69
2019-03-17T02:58:32.930Z,34.13
2019-03-17T03:03:42.071Z,39.34
2019-03-17T03:08:51.178Z,39.33
2019-03-17T03:14:00.338Z,33.94
2019-03-17T03:19:09.610Z,33.55
2019-03-17T03:24:18.798Z,33.92
2019-03-17T03:29:28.029Z,38.81
2019-03-17T03:34:37.233Z,39.47
2019-03-17T03:39:46.334Z,35.65
2019-03-17T03:44:55.509Z,38.46
2019-03-17T03:50:04.600Z,33.64
2019-03-17T03:55:13.788Z,32.91
2019-03-17T04:00:22.866Z,40.05
2019-03-17T04:05:32.974Z,34.80
2019-03-17T04:10:40.812Z,34.40
2019-03-17T04:15:49.934Z,34.84
2019-03-17T04:20:59.007Z,33.49
2019-03-17T04:26:08.126Z,41.86
2019-03-17T04:31:17.195Z,36.63
2019-03-17T04:36:39.151Z,42.07
2019-03-17T04:41:35.023Z,36.62
2019-03-17T04:46:44.194Z,37.98
2019-03-17T04:51:53.303Z,42.07
2019-03-17T04:57:02.415Z,36.31
2019-03-17T05:02:13.635Z,41.92
2019-03-17T05:07:20.177Z,37.57
2019-03-17T05:12:29.276Z,35.70
2019-03-17T05:17:38.554Z,36.29
2019-03-17T05:22:47.748Z,42.71
2019-03-17T05:27:56.921Z,43.79
2019-03-17T05:33:05.998Z,38.49
2019-03-17T05:38:15.172Z,36.83
2019-03-17T05:43:24.318Z,39.04
2019-03-17T05:48:33.599Z,40.05
2019-03-17T05:53:42.693Z,39.82
2019-03-17T05:58:51.853Z,39.46
2019-03-17T06:04:00.933Z,40.68
2019-03-17T06:09:10.169Z,43.07
2019-03-17T06:14:19.264Z,38.72
2019-03-17T06:19:28.438Z,40.10
2019-03-17T06:24:37.525Z,37.82
2019-03-17T06:29:46.766Z,44.17
2019-03-17T06:34:55.839Z,38.25
2019-03-17T06:40:04.975Z,40.69
2019-03-17T06:45:14.088Z,45.75
2019-03-17T06:50:23.228Z,45.55
2019-03-17T06:55:32.313Z,41.60
2019-03-17T07:00:39.967Z,44.27
2019-03-17T07:05:49.037Z,43.24
2019-03-17T07:10:58.132Z,39.13
2019-03-17T07:16:07.329Z,32.72
2019-03-17T07:21:16.565Z,31.45
2019-03-17T07:26:25.640Z,35.99
2019-03-17T07:31:34.779Z,35.40
2019-03-17T07:36:43.852Z,37.79
2019-03-17T07:41:53.016Z,37.24
2019-03-17T07:47:02.066Z,37.78
2019-03-17T07:52:11.256Z,43.08
2019-03-17T07:57:20.348Z,37.64
2019-03-17T08:02:29.486Z,44.07
2019-03-17T08:07:38.564Z,38.50
2019-03-17T08:12:47.796Z,36.52
2019-03-17T08:17:56.815Z,37.86
2019-03-17T08:23:05.973Z,38.45
2019-03-17T08:28:15.102Z,34.44
2019-03-17T08:33:24.265Z,39.20
2019-03-17T08:38:33.377Z,44.28
2019-03-17T08:43:53.860Z,37.52
2019-03-17T08:48:51.177Z,46.29
2019-03-17T08:54:00.332Z,46.99
2019-03-17T08:59:09.414Z,44.58
2019-03-17T09:04:18.406Z,45.90
2019-03-17T09:09:27.485Z,44.40
2019-03-17T09:14:36.817Z,41.04
2019-03-17T09:19:45.908Z,37.64
2019-03-17T09:24:55.067Z,38.78
2019-03-17T09:30:04.202Z,37.90
2019-03-17T09:35:13.493Z,47.02
2019-03-17T09:40:23.223Z,39.23
2019-03-17T09:45:32.394Z,38.62
2019-03-17T09:50:41.487Z,37.49
2019-03-17T09:55:50.634Z,40.66
2019-03-17T10:00:59.761Z,39.98
2019-03-17T10:06:08.883Z,42.96
2019-03-17T10:11:18.232Z,40.30
2019-03-17T10:16:27.407Z,46.50
2019-03-17T10:21:36.565Z,41.60
2019-03-17T10:26:45.777Z,38.16
2019-03-17T10:31:54.837Z,38.82
2019-03-17T10:37:04.028Z,40.05
2019-03-17T10:42:13.138Z,48.09
2019-03-17T10:47:22.260Z,40.93
2019-03-17T10:52:31.380Z,39.70
2019-03-17T10:57:40.529Z,48.06
2019-03-17T11:02:49.866Z,48.98
2019-03-17T11:07:59.049Z,49.57
2019-03-17T11:13:08.229Z,41.63
2019-03-17T11:18:17.557Z,39.39
2019-03-17T11:23:26.933Z,38.90
2019-03-17T11:28:36.155Z,47.70
2019-03-17T11:33:45.228Z,48.08
2019-03-17T11:38:54.482Z,41.54
2019-03-17T11:44:03.649Z,42.13
2019-03-17T11:49:13.716Z,48.04
2019-03-17T11:54:12.814Z,43.54
2019-03-17T11:59:22.002Z,43.05
2019-03-17T12:04:31.225Z,43.64
2019-03-17T12:09:49.735Z,43.45
2019-03-17T12:14:49.022Z,44.54
2019-03-17T12:19:59.162Z,44.10
2019-03-17T12:24:58.286Z,44.99
2019-03-17T12:30:07.422Z,46.03
2019-03-17T12:35:16.866Z,43.56
2019-03-17T12:40:26.230Z,45.18
2019-03-17T12:45:35.333Z,45.59
2019-03-17T12:50:44.540Z,44.33
2019-03-17T12:55:53.701Z,46.02
2019-03-17T13:01:02.891Z,45.28
2019-03-17T13:06:12.025Z,36.27
2019-03-17T13:11:21.283Z,43.09
2019-03-17T13:16:30.393Z,45.37
2019-03-17T13:21:39.635Z,44.47
2019-03-17T13:26:48.797Z,46.03
2019-03-17T13:31:57.954Z,45.50
2019-03-17T13:37:07.127Z,46.54
2019-03-17T13:42:16.326Z,36.55
2019-03-17T13:47:25.470Z,44.40
2019-03-17T13:52:34.689Z,47.22
2019-03-17T13:57:43.788Z,46.13
2019-03-17T14:02:52.948Z,46.04
2019-03-17T14:08:02.080Z,38.64
2019-03-17T14:13:11.267Z,51.37
2019-03-17T14:18:20.470Z,44.48
2019-03-17T14:23:29.842Z,47.61
2019-03-17T14:28:38.945Z,60.23
2019-03-17T14:33:48.146Z,78.62
2019-03-17T14:38:57.211Z,65.80
2019-03-17T14:44:04.908Z,47.15
2019-03-17T14:49:14.044Z,44.70
2019-03-17T14:54:23.257Z,53.43
2019-03-17T14:59:32.337Z,50.49
2019-03-17T15:04:41.464Z,52.24
2019-03-17T15:09:50.566Z,51.00
2019-03-17T15:14:59.708Z,50.51
2019-03-17T15:20:08.852Z,982.53
2019-03-17T15:25:17.994Z,998.60
2019-03-17T15:30:27.104Z,616.22
2019-03-17T15:35:36.617Z,42.01
2019-03-17T15:40:48.193Z,44.44
2019-03-17T15:45:47.307Z,44.22
2019-03-17T15:50:54.952Z,43.87
2019-03-17T15:56:04.141Z,43.82
2019-03-17T16:01:13.252Z,45.95
2019-03-17T16:06:23.055Z,37.72
2019-03-17T16:11:32.269Z,46.77
2019-03-17T16:16:41.530Z,37.75
2019-03-17T16:21:50.908Z,38.68
2019-03-17T16:27:02.830Z,38.23
2019-03-17T16:32:05.722Z,46.29
2019-03-17T16:37:05.356Z,38.38
2019-03-17T16:42:14.528Z,45.59
2019-03-17T16:47:23.662Z,45.06
2019-03-17T16:52:32.755Z,43.49
2019-03-17T16:57:41.917Z,41.95
2019-03-17T17:02:51.016Z,44.90
2019-03-17T17:08:00.197Z,43.14
2019-03-17T17:13:09.363Z,42.60
2019-03-17T17:18:18.578Z,44.35
2019-03-17T17:23:27.834Z,37.84
2019-03-17T17:28:37.006Z,46.53
2019-03-17T17:33:46.202Z,46.10
2019-03-17T17:38:55.242Z,45.70
2019-03-17T17:44:07.398Z,45.46
2019-03-17T17:49:06.740Z,37.88
2019-03-17T17:54:15.872Z,44.88
2019-03-17T17:59:25.116Z,44.48
2019-03-17T18:04:34.194Z,44.95
2019-03-17T18:09:43.458Z,42.63
2019-03-17T18:14:52.612Z,38.65
2019-03-17T18:20:01.813Z,45.85
2019-03-17T18:25:11.861Z,39.41
2019-03-17T18:30:11.015Z,40.80
2019-03-17T18:35:20.179Z,46.24
2019-03-17T18:40:29.395Z,42.44
2019-03-17T18:45:38.494Z,39.69
2019-03-17T18:50:47.780Z,44.32
2019-03-17T18:55:56.902Z,42.44
2019-03-17T19:01:06.114Z,43.49
2019-03-17T19:06:15.219Z,42.34
2019-03-17T19:11:24.395Z,43.65
2019-03-17T19:16:33.524Z,38.18
2019-03-17T19:21:42.821Z,39.07
2019-03-17T19:26:52.001Z,45.78
2019-03-17T19:32:01.189Z,43.85
2019-03-17T19:37:10.333Z,43.19
2019-03-17T19:42:19.571Z,43.09
2019-03-17T19:47:28.693Z,37.89
2019-03-17T19:52:37.870Z,38.62
2019-03-17T19:57:47.003Z,39.41
2019-03-17T20:02:56.234Z,45.65
2019-03-17T20:08:05.384Z,38.31
2019-03-17T20:13:14.543Z,41.08
2019-03-17T20:18:23.694Z,43.29
2019-03-17T20:23:32.817Z,43.45
2019-03-17T20:28:41.895Z,42.44
2019-03-17T20:33:51.673Z,41.97
2019-03-17T20:38:59.839Z,42.26
2019-03-17T20:44:08.961Z,42.33
2019-03-17T20:49:18.049Z,42.30
2019-03-17T20:54:27.231Z,42.28
2019-03-17T20:59:36.295Z,42.36
2019-03-17T21:04:45.486Z,38.89
2019-03-17T21:09:54.618Z,45.29
2019-03-17T21:15:03.846Z,43.19
2019-03-17T21:20:12.922Z,38.97
2019-03-17T21:25:22.154Z,44.33
2019-03-17T21:30:31.256Z,43.18
2019-03-17T21:35:40.397Z,42.89
2019-03-17T21:41:06.103Z,41.21
2019-03-17T21:45:58.358Z,41.41
2019-03-17T21:51:07.497Z,41.63
2019-03-17T21:56:16.682Z,42.49
2019-03-17T22:01:25.783Z,41.81
2019-03-17T22:06:34.950Z,41.74
2019-03-17T22:11:44.170Z,42.00
2019-03-17T22:16:53.329Z,41.92
2019-03-17T22:22:02.428Z,41.10
2019-03-17T22:27:11.714Z,41.39
2019-03-17T22:32:20.781Z,38.43
2019-03-17T22:37:30.097Z,43.28
2019-03-17T22:42:39.229Z,40.27
2019-03-17T22:47:48.380Z,43.36
2019-03-17T22:52:57.635Z,41.78
2019-03-17T22:58:06.803Z,39.55
2019-03-17T23:03:15.884Z,39.51
2019-03-17T23:08:25.020Z,41.08
2019-03-17T23:13:34.108Z,41.67
2019-03-17T23:18:43.217Z,40.19
2019-03-17T23:23:52.296Z,39.06
2019-03-17T23:29:01.502Z,40.19
2019-03-17T23:34:10.574Z,41.18
2019-03-17T23:39:19.681Z,41.23
2019-03-17T23:44:28.780Z,42.10
2019-03-17T23:49:39.153Z,44.33
2019-03-17T23:54:38.223Z,41.36
2019-03-17T23:59:47.355Z,40.80
